sensor_id;sensor_type;location;lat;lon;timestamp;P1;durP1;ratioP1;P2;durP2;ratioP2
30743;SDS011;17486;46.738;7.622;2023-08-06T00:01:24;3.03;;;2.15;;
30743;SDS011;17486;46.738;7.622;2023-08-06T00:03:50;2.38;;;1.88;;
30743;SDS011;17486;46.738;7.622;2023-08-06T00:06:16;2.60;;;2.03;;
30743;SDS011;17486;46.738;7.622;2023-08-06T00:08:41;3.72;;;2.22;;
30743;SDS011;17486;46.738;7.622;2023-08-06T00:11:07;2.58;;;2.38;;
30743;SDS011;17486;46.738;7.622;2023-08-06T00:13:32;2.83;;;2.20;;
30743;SDS011;17486;46.738;7.622;2023-08-06T00:16:15;2.20;;;2.03;;
30743;SDS011;17486;46.738;7.622;2023-08-06T00:18:41;2.60;;;2.08;;
30743;SDS011;17486;46.738;7.622;2023-08-06T00:21:07;2.47;;;2.10;;
30743;SDS011;17486;46.738;7.622;2023-08-06T00:23:32;2.75;;;2.13;;
30743;SDS011;17486;46.738;7.622;2023-08-06T00:25:57;2.53;;;1.92;;
30743;SDS011;17486;46.738;7.622;2023-08-06T00:28:23;2.00;;;1.90;;
30743;SDS011;17486;46.738;7.622;2023-08-06T00:30:54;3.88;;;2.28;;
30743;SDS011;17486;46.738;7.622;2023-08-06T00:33:21;2.33;;;2.13;;
30743;SDS011;17486;46.738;7.622;2023-08-06T00:35:47;2.95;;;2.38;;
30743;SDS011;17486;46.738;7.622;2023-08-06T00:38:12;4.40;;;2.30;;
30743;SDS011;17486;46.738;7.622;2023-08-06T00:40:38;2.67;;;2.15;;
30743;SDS011;17486;46.738;7.622;2023-08-06T00:43:03;3.28;;;2.05;;
30743;SDS011;17486;46.738;7.622;2023-08-06T00:45:29;2.42;;;2.20;;
30743;SDS011;17486;46.738;7.622;2023-08-06T00:47:56;3.90;;;2.72;;
30743;SDS011;17486;46.738;7.622;2023-08-06T00:50:22;3.75;;;2.55;;
30743;SDS011;17486;46.738;7.622;2023-08-06T00:52:50;2.97;;;2.22;;
30743;SDS011;17486;46.738;7.622;2023-08-06T00:55:16;5.00;;;2.70;;
30743;SDS011;17486;46.738;7.622;2023-08-06T00:57:42;2.60;;;2.40;;
30743;SDS011;17486;46.738;7.622;2023-08-06T01:00:07;3.45;;;2.35;;
30743;SDS011;17486;46.738;7.622;2023-08-06T01:02:33;2.55;;;2.33;;
30743;SDS011;17486;46.738;7.622;2023-08-06T01:04:59;3.28;;;2.20;;
30743;SDS011;17486;46.738;7.622;2023-08-06T01:10:23;4.15;;;2.40;;
30743;SDS011;17486;46.738;7.622;2023-08-06T01:13:08;3.92;;;2.20;;
30743;SDS011;17486;46.738;7.622;2023-08-06T01:15:49;2.92;;;2.63;;
30743;SDS011;17486;46.738;7.622;2023-08-06T01:18:20;3.80;;;2.45;;
30743;SDS011;17486;46.738;7.622;2023-08-06T01:20:46;2.58;;;2.38;;
30743;SDS011;17486;46.738;7.622;2023-08-06T01:23:11;2.75;;;2.35;;
30743;SDS011;17486;46.738;7.622;2023-08-06T01:25:40;3.35;;;2.28;;
30743;SDS011;17486;46.738;7.622;2023-08-06T01:31:41;2.15;;;1.98;;
30743;SDS011;17486;46.738;7.622;2023-08-06T01:34:10;3.13;;;2.40;;
30743;SDS011;17486;46.738;7.622;2023-08-06T01:36:42;3.05;;;2.28;;
30743;SDS011;17486;46.738;7.622;2023-08-06T01:39:08;5.50;;;2.30;;
30743;SDS011;17486;46.738;7.622;2023-08-06T01:41:33;2.40;;;1.98;;
30743;SDS011;17486;46.738;7.622;2023-08-06T01:43:58;2.40;;;2.20;;
30743;SDS011;17486;46.738;7.622;2023-08-06T01:46:24;2.40;;;2.10;;
30743;SDS011;17486;46.738;7.622;2023-08-06T01:48:49;2.10;;;1.90;;
30743;SDS011;17486;46.738;7.622;2023-08-06T01:51:15;2.25;;;2.00;;
30743;SDS011;17486;46.738;7.622;2023-08-06T01:53:40;2.97;;;2.25;;
30743;SDS011;17486;46.738;7.622;2023-08-06T01:56:05;2.42;;;2.00;;
30743;SDS011;17486;46.738;7.622;2023-08-06T01:58:31;2.10;;;1.90;;
30743;SDS011;17486;46.738;7.622;2023-08-06T02:00:56;2.95;;;1.65;;
30743;SDS011;17486;46.738;7.622;2023-08-06T02:03:22;1.92;;;1.83;;
30743;SDS011;17486;46.738;7.622;2023-08-06T02:05:47;2.10;;;1.67;;
30743;SDS011;17486;46.738;7.622;2023-08-06T02:08:12;2.17;;;1.90;;
30743;SDS011;17486;46.738;7.622;2023-08-06T02:10:38;2.20;;;2.00;;
30743;SDS011;17486;46.738;7.622;2023-08-06T02:13:03;2.58;;;1.98;;
30743;SDS011;17486;46.738;7.622;2023-08-06T02:15:28;2.40;;;1.90;;
30743;SDS011;17486;46.738;7.622;2023-08-06T02:17:54;4.05;;;1.98;;
30743;SDS011;17486;46.738;7.622;2023-08-06T02:20:19;1.60;;;1.50;;
30743;SDS011;17486;46.738;7.622;2023-08-06T02:22:45;1.88;;;1.60;;
30743;SDS011;17486;46.738;7.622;2023-08-06T02:25:10;2.40;;;1.75;;
30743;SDS011;17486;46.738;7.622;2023-08-06T02:27:36;2.17;;;1.75;;
30743;SDS011;17486;46.738;7.622;2023-08-06T02:30:02;1.90;;;1.65;;
30743;SDS011;17486;46.738;7.622;2023-08-06T02:32:29;1.95;;;1.58;;
30743;SDS011;17486;46.738;7.622;2023-08-06T02:34:56;2.13;;;1.80;;
30743;SDS011;17486;46.738;7.622;2023-08-06T02:37:22;2.65;;;1.70;;
30743;SDS011;17486;46.738;7.622;2023-08-06T02:39:47;2.40;;;1.90;;
30743;SDS011;17486;46.738;7.622;2023-08-06T02:42:12;1.38;;;1.27;;
30743;SDS011;17486;46.738;7.622;2023-08-06T02:44:38;2.97;;;1.70;;
30743;SDS011;17486;46.738;7.622;2023-08-06T02:47:03;2.35;;;1.55;;
30743;SDS011;17486;46.738;7.622;2023-08-06T02:49:29;2.38;;;1.75;;
30743;SDS011;17486;46.738;7.622;2023-08-06T02:51:54;2.75;;;1.60;;
30743;SDS011;17486;46.738;7.622;2023-08-06T02:54:20;2.83;;;2.00;;
30743;SDS011;17486;46.738;7.622;2023-08-06T02:56:45;1.98;;;1.77;;
30743;SDS011;17486;46.738;7.622;2023-08-06T02:59:11;2.50;;;1.80;;
30743;SDS011;17486;46.738;7.622;2023-08-06T03:01:37;2.05;;;1.50;;
30743;SDS011;17486;46.738;7.622;2023-08-06T03:04:02;1.98;;;1.70;;
30743;SDS011;17486;46.738;7.622;2023-08-06T03:06:28;2.92;;;2.03;;
30743;SDS011;17486;46.738;7.622;2023-08-06T03:08:54;1.83;;;1.40;;
30743;SDS011;17486;46.738;7.622;2023-08-06T03:11:19;2.63;;;1.65;;
30743;SDS011;17486;46.738;7.622;2023-08-06T03:13:44;2.15;;;1.60;;
30743;SDS011;17486;46.738;7.622;2023-08-06T03:16:10;2.63;;;1.90;;
30743;SDS011;17486;46.738;7.622;2023-08-06T03:18:35;2.00;;;1.80;;
30743;SDS011;17486;46.738;7.622;2023-08-06T03:21:00;1.98;;;1.60;;
30743;SDS011;17486;46.738;7.622;2023-08-06T03:23:26;4.22;;;2.40;;
30743;SDS011;17486;46.738;7.622;2023-08-06T03:25:51;3.03;;;2.20;;
30743;SDS011;17486;46.738;7.622;2023-08-06T03:28:17;2.00;;;1.58;;
30743;SDS011;17486;46.738;7.622;2023-08-06T03:30:42;1.90;;;1.70;;
30743;SDS011;17486;46.738;7.622;2023-08-06T03:33:08;2.65;;;2.10;;
30743;SDS011;17486;46.738;7.622;2023-08-06T03:35:33;2.45;;;1.77;;
30743;SDS011;17486;46.738;7.622;2023-08-06T03:37:58;1.58;;;1.48;;
30743;SDS011;17486;46.738;7.622;2023-08-06T03:40:24;3.53;;;1.65;;
30743;SDS011;17486;46.738;7.622;2023-08-06T03:42:49;2.08;;;1.80;;
30743;SDS011;17486;46.738;7.622;2023-08-06T03:45:14;2.33;;;1.98;;
30743;SDS011;17486;46.738;7.622;2023-08-06T03:47:40;1.70;;;1.60;;
30743;SDS011;17486;46.738;7.622;2023-08-06T03:50:05;3.65;;;1.73;;
30743;SDS011;17486;46.738;7.622;2023-08-06T03:52:31;3.50;;;1.70;;
30743;SDS011;17486;46.738;7.622;2023-08-06T03:54:57;2.17;;;1.67;;
30743;SDS011;17486;46.738;7.622;2023-08-06T03:57:22;2.35;;;1.50;;
30743;SDS011;17486;46.738;7.622;2023-08-06T03:59:47;1.80;;;1.50;;
30743;SDS011;17486;46.738;7.622;2023-08-06T04:02:13;2.25;;;1.80;;
30743;SDS011;17486;46.738;7.622;2023-08-06T04:04:38;2.92;;;1.85;;
30743;SDS011;17486;46.738;7.622;2023-08-06T04:07:04;1.98;;;1.50;;
30743;SDS011;17486;46.738;7.622;2023-08-06T04:09:29;3.72;;;2.03;;
30743;SDS011;17486;46.738;7.622;2023-08-06T04:11:54;2.35;;;1.73;;
30743;SDS011;17486;46.738;7.622;2023-08-06T04:14:21;1.90;;;1.50;;
30743;SDS011;17486;46.738;7.622;2023-08-06T04:16:46;3.17;;;1.70;;
30743;SDS011;17486;46.738;7.622;2023-08-06T04:19:12;2.03;;;1.58;;
30743;SDS011;17486;46.738;7.622;2023-08-06T04:21:37;1.70;;;1.33;;
30743;SDS011;17486;46.738;7.622;2023-08-06T04:24:02;2.20;;;1.73;;
30743;SDS011;17486;46.738;7.622;2023-08-06T04:26:28;2.35;;;1.63;;
30743;SDS011;17486;46.738;7.622;2023-08-06T04:28:54;2.97;;;1.88;;
30743;SDS011;17486;46.738;7.622;2023-08-06T04:31:19;2.30;;;1.45;;
30743;SDS011;17486;46.738;7.622;2023-08-06T04:33:45;2.42;;;1.80;;
30743;SDS011;17486;46.738;7.622;2023-08-06T04:36:10;3.45;;;1.75;;
30743;SDS011;17486;46.738;7.622;2023-08-06T04:38:36;2.00;;;1.60;;
30743;SDS011;17486;46.738;7.622;2023-08-06T04:41:03;3.13;;;1.60;;
30743;SDS011;17486;46.738;7.622;2023-08-06T04:43:29;2.22;;;1.70;;
30743;SDS011;17486;46.738;7.622;2023-08-06T04:45:55;2.38;;;1.70;;
30743;SDS011;17486;46.738;7.622;2023-08-06T04:48:21;2.35;;;1.60;;
30743;SDS011;17486;46.738;7.622;2023-08-06T04:50:48;3.20;;;1.73;;
30743;SDS011;17486;46.738;7.622;2023-08-06T04:53:14;1.67;;;1.58;;
30743;SDS011;17486;46.738;7.622;2023-08-06T04:55:40;2.05;;;1.33;;
30743;SDS011;17486;46.738;7.622;2023-08-06T04:58:06;2.08;;;1.40;;
30743;SDS011;17486;46.738;7.622;2023-08-06T05:00:31;1.58;;;1.23;;
30743;SDS011;17486;46.738;7.622;2023-08-06T05:02:58;2.10;;;1.30;;
30743;SDS011;17486;46.738;7.622;2023-08-06T05:05:25;1.50;;;1.10;;
30743;SDS011;17486;46.738;7.622;2023-08-06T05:07:50;1.60;;;1.40;;
30743;SDS011;17486;46.738;7.622;2023-08-06T05:10:16;2.92;;;1.20;;
30743;SDS011;17486;46.738;7.622;2023-08-06T05:12:41;4.05;;;1.20;;
30743;SDS011;17486;46.738;7.622;2023-08-06T05:15:07;1.38;;;1.10;;
30743;SDS011;17486;46.738;7.622;2023-08-06T05:17:33;4.05;;;1.35;;
30743;SDS011;17486;46.738;7.622;2023-08-06T05:19:59;1.50;;;1.35;;
30743;SDS011;17486;46.738;7.622;2023-08-06T05:22:24;2.15;;;1.50;;
30743;SDS011;17486;46.738;7.622;2023-08-06T05:24:49;1.80;;;1.38;;
30743;SDS011;17486;46.738;7.622;2023-08-06T05:27:15;1.70;;;0.95;;
30743;SDS011;17486;46.738;7.622;2023-08-06T05:29:40;2.33;;;1.30;;
30743;SDS011;17486;46.738;7.622;2023-08-06T05:32:06;2.47;;;1.20;;
30743;SDS011;17486;46.738;7.622;2023-08-06T05:34:32;2.25;;;1.35;;
30743;SDS011;17486;46.738;7.622;2023-08-06T05:36:57;2.45;;;1.08;;
30743;SDS011;17486;46.738;7.622;2023-08-06T05:39:22;2.15;;;1.30;;
30743;SDS011;17486;46.738;7.622;2023-08-06T05:41:48;2.05;;;1.05;;
30743;SDS011;17486;46.738;7.622;2023-08-06T05:44:13;1.80;;;1.35;;
30743;SDS011;17486;46.738;7.622;2023-08-06T05:46:39;1.50;;;1.17;;
30743;SDS011;17486;46.738;7.622;2023-08-06T05:49:04;1.27;;;0.95;;
30743;SDS011;17486;46.738;7.622;2023-08-06T05:51:30;1.60;;;1.13;;
30743;SDS011;17486;46.738;7.622;2023-08-06T05:53:55;3.55;;;1.58;;
30743;SDS011;17486;46.738;7.622;2023-08-06T05:56:21;3.70;;;1.52;;
30743;SDS011;17486;46.738;7.622;2023-08-06T05:58:46;3.88;;;1.52;;
30743;SDS011;17486;46.738;7.622;2023-08-06T06:01:12;3.72;;;1.60;;
30743;SDS011;17486;46.738;7.622;2023-08-06T06:03:38;3.13;;;1.33;;
30743;SDS011;17486;46.738;7.622;2023-08-06T06:06:03;2.72;;;1.17;;
30743;SDS011;17486;46.738;7.622;2023-08-06T06:08:29;4.53;;;1.10;;
30743;SDS011;17486;46.738;7.622;2023-08-06T06:10:54;2.40;;;0.77;;
30743;SDS011;17486;46.738;7.622;2023-08-06T06:13:19;1.90;;;0.77;;
30743;SDS011;17486;46.738;7.622;2023-08-06T06:15:46;2.53;;;1.00;;
30743;SDS011;17486;46.738;7.622;2023-08-06T06:18:12;2.85;;;1.40;;
30743;SDS011;17486;46.738;7.622;2023-08-06T06:20:38;3.08;;;0.90;;
30743;SDS011;17486;46.738;7.622;2023-08-06T06:23:03;2.72;;;1.25;;
30743;SDS011;17486;46.738;7.622;2023-08-06T06:25:29;2.38;;;1.02;;
30743;SDS011;17486;46.738;7.622;2023-08-06T06:27:54;2.72;;;0.90;;
30743;SDS011;17486;46.738;7.622;2023-08-06T06:30:19;3.42;;;1.02;;
30743;SDS011;17486;46.738;7.622;2023-08-06T06:32:45;3.80;;;1.00;;
30743;SDS011;17486;46.738;7.622;2023-08-06T06:35:10;1.52;;;1.00;;
30743;SDS011;17486;46.738;7.622;2023-08-06T06:37:35;3.53;;;0.95;;
30743;SDS011;17486;46.738;7.622;2023-08-06T06:40:01;2.58;;;1.02;;
30743;SDS011;17486;46.738;7.622;2023-08-06T06:42:26;2.22;;;0.93;;
30743;SDS011;17486;46.738;7.622;2023-08-06T06:44:52;3.58;;;1.00;;
30743;SDS011;17486;46.738;7.622;2023-08-06T06:47:17;3.08;;;1.23;;
30743;SDS011;17486;46.738;7.622;2023-08-06T06:49:42;2.17;;;1.05;;
30743;SDS011;17486;46.738;7.622;2023-08-06T06:52:08;3.13;;;1.02;;
30743;SDS011;17486;46.738;7.622;2023-08-06T06:54:33;1.58;;;0.95;;
30743;SDS011;17486;46.738;7.622;2023-08-06T06:56:58;3.38;;;1.05;;
30743;SDS011;17486;46.738;7.622;2023-08-06T06:59:24;2.78;;;1.15;;
30743;SDS011;17486;46.738;7.622;2023-08-06T07:01:49;2.90;;;1.17;;
30743;SDS011;17486;46.738;7.622;2023-08-06T07:04:15;3.25;;;1.20;;
30743;SDS011;17486;46.738;7.622;2023-08-06T07:06:40;2.40;;;1.05;;
30743;SDS011;17486;46.738;7.622;2023-08-06T07:09:05;2.80;;;1.15;;
30743;SDS011;17486;46.738;7.622;2023-08-06T07:11:31;2.83;;;1.10;;
30743;SDS011;17486;46.738;7.622;2023-08-06T07:13:57;3.70;;;1.10;;
30743;SDS011;17486;46.738;7.622;2023-08-06T07:16:23;2.05;;;0.90;;
30743;SDS011;17486;46.738;7.622;2023-08-06T07:18:49;4.38;;;1.23;;
30743;SDS011;17486;46.738;7.622;2023-08-06T07:21:15;3.17;;;1.40;;
30743;SDS011;17486;46.738;7.622;2023-08-06T07:23:41;3.22;;;1.00;;
30743;SDS011;17486;46.738;7.622;2023-08-06T07:26:06;1.92;;;0.93;;
30743;SDS011;17486;46.738;7.622;2023-08-06T07:28:31;2.58;;;0.90;;
30743;SDS011;17486;46.738;7.622;2023-08-06T07:30:57;4.20;;;1.13;;
30743;SDS011;17486;46.738;7.622;2023-08-06T07:33:22;3.53;;;0.90;;
30743;SDS011;17486;46.738;7.622;2023-08-06T07:35:48;1.15;;;0.70;;
30743;SDS011;17486;46.738;7.622;2023-08-06T07:38:13;3.13;;;1.23;;
30743;SDS011;17486;46.738;7.622;2023-08-06T07:40:38;4.13;;;1.20;;
30743;SDS011;17486;46.738;7.622;2023-08-06T07:43:04;2.40;;;0.80;;
30743;SDS011;17486;46.738;7.622;2023-08-06T07:45:36;2.72;;;0.88;;
30743;SDS011;17486;46.738;7.622;2023-08-06T07:48:02;2.35;;;0.70;;
30743;SDS011;17486;46.738;7.622;2023-08-06T07:50:28;1.00;;;0.50;;
30743;SDS011;17486;46.738;7.622;2023-08-06T07:52:53;1.20;;;0.60;;
30743;SDS011;17486;46.738;7.622;2023-08-06T07:55:19;2.88;;;0.80;;
30743;SDS011;17486;46.738;7.622;2023-08-06T07:57:44;3.17;;;0.95;;
30743;SDS011;17486;46.738;7.622;2023-08-06T08:00:09;2.13;;;0.60;;
30743;SDS011;17486;46.738;7.622;2023-08-06T08:02:35;2.38;;;0.90;;
30743;SDS011;17486;46.738;7.622;2023-08-06T08:05:01;2.05;;;0.70;;
30743;SDS011;17486;46.738;7.622;2023-08-06T08:07:26;2.13;;;0.70;;
30743;SDS011;17486;46.738;7.622;2023-08-06T08:09:54;1.10;;;0.70;;
30743;SDS011;17486;46.738;7.622;2023-08-06T08:12:19;1.27;;;0.70;;
30743;SDS011;17486;46.738;7.622;2023-08-06T08:14:44;1.35;;;0.68;;
30743;SDS011;17486;46.738;7.622;2023-08-06T08:17:10;1.23;;;0.55;;
30743;SDS011;17486;46.738;7.622;2023-08-06T08:19:37;2.00;;;0.80;;
30743;SDS011;17486;46.738;7.622;2023-08-06T08:22:02;113.15;;;80.40;;
30743;SDS011;17486;46.738;7.622;2023-08-06T08:24:28;107.63;;;75.75;;
30743;SDS011;17486;46.738;7.622;2023-08-06T08:26:55;174.05;;;118.88;;
30743;SDS011;17486;46.738;7.622;2023-08-06T08:29:21;59.25;;;40.63;;
30743;SDS011;17486;46.738;7.622;2023-08-06T08:31:47;14.15;;;9.93;;
30743;SDS011;17486;46.738;7.622;2023-08-06T08:34:15;3.33;;;2.30;;
30743;SDS011;17486;46.738;7.622;2023-08-06T08:36:44;1.50;;;0.93;;
30743;SDS011;17486;46.738;7.622;2023-08-06T08:39:12;3.17;;;1.58;;
30743;SDS011;17486;46.738;7.622;2023-08-06T08:41:38;1.13;;;0.85;;
30743;SDS011;17486;46.738;7.622;2023-08-06T08:44:04;0.90;;;0.88;;
30743;SDS011;17486;46.738;7.622;2023-08-06T08:46:37;0.70;;;0.65;;
30743;SDS011;17486;46.738;7.622;2023-08-06T08:49:05;2.63;;;0.82;;
30743;SDS011;17486;46.738;7.622;2023-08-06T08:51:32;0.70;;;0.40;;
30743;SDS011;17486;46.738;7.622;2023-08-06T08:53:58;1.42;;;0.77;;
30743;SDS011;17486;46.738;7.622;2023-08-06T08:56:24;1.27;;;0.93;;
30743;SDS011;17486;46.738;7.622;2023-08-06T08:58:50;1.15;;;0.90;;
30743;SDS011;17486;46.738;7.622;2023-08-06T09:01:18;3.88;;;1.17;;
30743;SDS011;17486;46.738;7.622;2023-08-06T09:03:43;1.00;;;0.60;;
30743;SDS011;17486;46.738;7.622;2023-08-06T09:06:10;1.00;;;0.57;;
30743;SDS011;17486;46.738;7.622;2023-08-06T09:08:39;1.83;;;0.40;;
30743;SDS011;17486;46.738;7.622;2023-08-06T09:11:11;0.40;;;0.40;;
30743;SDS011;17486;46.738;7.622;2023-08-06T09:13:37;0.93;;;0.30;;
30743;SDS011;17486;46.738;7.622;2023-08-06T09:16:04;0.20;;;0.20;;
30743;SDS011;17486;46.738;7.622;2023-08-06T09:18:29;0.68;;;0.30;;
30743;SDS011;17486;46.738;7.622;2023-08-06T09:20:56;90.75;;;68.10;;
30743;SDS011;17486;46.738;7.622;2023-08-06T09:23:28;23.77;;;18.95;;
30743;SDS011;17486;46.738;7.622;2023-08-06T09:25:55;25.67;;;20.33;;
30743;SDS011;17486;46.738;7.622;2023-08-06T09:28:22;62.83;;;45.42;;
30743;SDS011;17486;46.738;7.622;2023-08-06T09:30:49;22.50;;;17.73;;
30743;SDS011;17486;46.738;7.622;2023-08-06T09:33:18;2.47;;;2.28;;
30743;SDS011;17486;46.738;7.622;2023-08-06T09:35:45;0.43;;;0.43;;
30743;SDS011;17486;46.738;7.622;2023-08-06T09:38:12;0.22;;;0.22;;
30743;SDS011;17486;46.738;7.622;2023-08-06T09:40:37;0.60;;;0.30;;
30743;SDS011;17486;46.738;7.622;2023-08-06T09:43:04;0.80;;;0.30;;
30743;SDS011;17486;46.738;7.622;2023-08-06T09:45:33;0.30;;;0.30;;
30743;SDS011;17486;46.738;7.622;2023-08-06T09:48:02;0.25;;;0.20;;
30743;SDS011;17486;46.738;7.622;2023-08-06T09:50:32;0.17;;;0.15;;
30743;SDS011;17486;46.738;7.622;2023-08-06T09:53:01;0.95;;;0.28;;
30743;SDS011;17486;46.738;7.622;2023-08-06T09:55:29;0.82;;;0.60;;
30743;SDS011;17486;46.738;7.622;2023-08-06T09:57:55;1.10;;;0.40;;
30743;SDS011;17486;46.738;7.622;2023-08-06T10:00:21;2.30;;;0.43;;
30743;SDS011;17486;46.738;7.622;2023-08-06T10:02:48;0.75;;;0.30;;
30743;SDS011;17486;46.738;7.622;2023-08-06T10:05:16;2.40;;;0.40;;
30743;SDS011;17486;46.738;7.622;2023-08-06T10:07:42;1.10;;;0.20;;
30743;SDS011;17486;46.738;7.622;2023-08-06T10:10:09;0.10;;;0.10;;
30743;SDS011;17486;46.738;7.622;2023-08-06T10:12:37;0.60;;;0.20;;
30743;SDS011;17486;46.738;7.622;2023-08-06T10:15:06;1.65;;;0.20;;
30743;SDS011;17486;46.738;7.622;2023-08-06T10:17:34;0.10;;;0.10;;
30743;SDS011;17486;46.738;7.622;2023-08-06T10:20:02;1.17;;;0.45;;
30743;SDS011;17486;46.738;7.622;2023-08-06T10:22:32;0.70;;;0.20;;
30743;SDS011;17486;46.738;7.622;2023-08-06T10:24:58;0.20;;;0.20;;
30743;SDS011;17486;46.738;7.622;2023-08-06T10:28:02;0.93;;;0.30;;
30743;SDS011;17486;46.738;7.622;2023-08-06T10:33:03;1.35;;;0.32;;
30743;SDS011;17486;46.738;7.622;2023-08-06T10:37:59;0.40;;;0.40;;
30743;SDS011;17486;46.738;7.622;2023-08-06T10:40:35;0.40;;;0.20;;
30743;SDS011;17486;46.738;7.622;2023-08-06T10:43:04;0.10;;;0.10;;
30743;SDS011;17486;46.738;7.622;2023-08-06T10:45:35;0.52;;;0.20;;
30743;SDS011;17486;46.738;7.622;2023-08-06T10:48:01;0.00;;;0.00;;
30743;SDS011;17486;46.738;7.622;2023-08-06T10:50:27;1.17;;;0.10;;
30743;SDS011;17486;46.738;7.622;2023-08-06T10:52:53;0.30;;;0.10;;
30743;SDS011;17486;46.738;7.622;2023-08-06T10:55:22;0.10;;;0.00;;
30743;SDS011;17486;46.738;7.622;2023-08-06T10:57:54;0.98;;;0.20;;
30743;SDS011;17486;46.738;7.622;2023-08-06T11:00:24;0.15;;;0.10;;
30743;SDS011;17486;46.738;7.622;2023-08-06T11:02:51;0.10;;;0.10;;
30743;SDS011;17486;46.738;7.622;2023-08-06T11:05:18;0.40;;;0.10;;
30743;SDS011;17486;46.738;7.622;2023-08-06T11:07:44;0.65;;;0.30;;
30743;SDS011;17486;46.738;7.622;2023-08-06T11:10:11;0.68;;;0.38;;
30743;SDS011;17486;46.738;7.622;2023-08-06T11:12:38;92.78;;;71.25;;
30743;SDS011;17486;46.738;7.622;2023-08-06T11:15:04;81.07;;;63.08;;
30743;SDS011;17486;46.738;7.622;2023-08-06T11:17:31;66.82;;;55.42;;
30743;SDS011;17486;46.738;7.622;2023-08-06T11:20:01;14.98;;;13.40;;
30743;SDS011;17486;46.738;7.622;2023-08-06T11:22:28;2.85;;;2.25;;
30743;SDS011;17486;46.738;7.622;2023-08-06T11:24:53;0.70;;;0.63;;
30743;SDS011;17486;46.738;7.622;2023-08-06T11:27:20;0.30;;;0.20;;
30743;SDS011;17486;46.738;7.622;2023-08-06T11:29:45;1.77;;;0.10;;
30743;SDS011;17486;46.738;7.622;2023-08-06T11:32:11;0.20;;;0.20;;
30743;SDS011;17486;46.738;7.622;2023-08-06T11:34:37;0.10;;;0.10;;
30743;SDS011;17486;46.738;7.622;2023-08-06T11:37:03;0.98;;;0.40;;
30743;SDS011;17486;46.738;7.622;2023-08-06T11:39:31;1.05;;;0.25;;
30743;SDS011;17486;46.738;7.622;2023-08-06T11:42:02;0.52;;;0.20;;
30743;SDS011;17486;46.738;7.622;2023-08-06T11:44:32;0.10;;;0.10;;
30743;SDS011;17486;46.738;7.622;2023-08-06T11:47:00;0.63;;;0.20;;
30743;SDS011;17486;46.738;7.622;2023-08-06T11:49:37;0.17;;;0.10;;
30743;SDS011;17486;46.738;7.622;2023-08-06T11:52:08;0.20;;;0.20;;
30743;SDS011;17486;46.738;7.622;2023-08-06T11:54:41;0.20;;;0.10;;
30743;SDS011;17486;46.738;7.622;2023-08-06T11:57:07;0.10;;;0.10;;
30743;SDS011;17486;46.738;7.622;2023-08-06T11:59:33;0.00;;;0.00;;
30743;SDS011;17486;46.738;7.622;2023-08-06T12:02:06;0.10;;;0.10;;
30743;SDS011;17486;46.738;7.622;2023-08-06T12:07:25;0.03;;;0.03;;
30743;SDS011;17486;46.738;7.622;2023-08-06T12:09:53;0.05;;;0.00;;
30743;SDS011;17486;46.738;7.622;2023-08-06T12:12:19;0.38;;;0.30;;
30743;SDS011;17486;46.738;7.622;2023-08-06T12:14:44;1.10;;;0.25;;
30743;SDS011;17486;46.738;7.622;2023-08-06T12:17:09;0.03;;;0.03;;
30743;SDS011;17486;46.738;7.622;2023-08-06T12:19:36;0.55;;;0.55;;
30743;SDS011;17486;46.738;7.622;2023-08-06T12:22:01;1.25;;;1.15;;
30743;SDS011;17486;46.738;7.622;2023-08-06T12:24:27;0.30;;;0.30;;
30743;SDS011;17486;46.738;7.622;2023-08-06T12:26:56;0.20;;;0.10;;
30743;SDS011;17486;46.738;7.622;2023-08-06T12:29:22;0.40;;;0.17;;
30743;SDS011;17486;46.738;7.622;2023-08-06T12:31:48;0.00;;;0.00;;
30743;SDS011;17486;46.738;7.622;2023-08-06T12:34:13;0.15;;;0.15;;
30743;SDS011;17486;46.738;7.622;2023-08-06T12:36:39;0.15;;;0.15;;
30743;SDS011;17486;46.738;7.622;2023-08-06T12:39:04;1.17;;;0.20;;
30743;SDS011;17486;46.738;7.622;2023-08-06T12:41:30;0.10;;;0.10;;
30743;SDS011;17486;46.738;7.622;2023-08-06T12:43:55;1.05;;;0.30;;
30743;SDS011;17486;46.738;7.622;2023-08-06T12:46:21;0.52;;;0.50;;
30743;SDS011;17486;46.738;7.622;2023-08-06T12:48:46;0.68;;;0.30;;
30743;SDS011;17486;46.738;7.622;2023-08-06T12:51:13;0.10;;;0.10;;
30743;SDS011;17486;46.738;7.622;2023-08-06T12:53:39;0.35;;;0.20;;
30743;SDS011;17486;46.738;7.622;2023-08-06T12:56:04;0.57;;;0.57;;
30743;SDS011;17486;46.738;7.622;2023-08-06T12:58:30;0.10;;;0.10;;
30743;SDS011;17486;46.738;7.622;2023-08-06T13:00:56;1.08;;;0.22;;
30743;SDS011;17486;46.738;7.622;2023-08-06T13:03:21;0.30;;;0.30;;
30743;SDS011;17486;46.738;7.622;2023-08-06T13:05:47;0.20;;;0.20;;
30743;SDS011;17486;46.738;7.622;2023-08-06T13:08:12;1.17;;;0.57;;
30743;SDS011;17486;46.738;7.622;2023-08-06T13:10:38;0.40;;;0.40;;
30743;SDS011;17486;46.738;7.622;2023-08-06T13:13:03;0.75;;;0.65;;
30743;SDS011;17486;46.738;7.622;2023-08-06T13:15:29;0.40;;;0.40;;
30743;SDS011;17486;46.738;7.622;2023-08-06T13:17:54;0.85;;;0.20;;
30743;SDS011;17486;46.738;7.622;2023-08-06T13:20:20;0.80;;;0.50;;
30743;SDS011;17486;46.738;7.622;2023-08-06T13:22:45;0.68;;;0.47;;
30743;SDS011;17486;46.738;7.622;2023-08-06T13:25:11;0.55;;;0.40;;
30743;SDS011;17486;46.738;7.622;2023-08-06T13:27:39;2.10;;;0.32;;
30743;SDS011;17486;46.738;7.622;2023-08-06T13:30:05;0.17;;;0.10;;
30743;SDS011;17486;46.738;7.622;2023-08-06T13:32:31;0.40;;;0.30;;
30743;SDS011;17486;46.738;7.622;2023-08-06T13:34:57;0.20;;;0.20;;
30743;SDS011;17486;46.738;7.622;2023-08-06T13:37:23;0.10;;;0.10;;
30743;SDS011;17486;46.738;7.622;2023-08-06T13:39:49;0.25;;;0.20;;
30743;SDS011;17486;46.738;7.622;2023-08-06T13:42:15;0.30;;;0.20;;
30743;SDS011;17486;46.738;7.622;2023-08-06T13:44:40;1.13;;;0.30;;
30743;SDS011;17486;46.738;7.622;2023-08-06T13:47:05;0.43;;;0.13;;
30743;SDS011;17486;46.738;7.622;2023-08-06T13:49:31;0.20;;;0.17;;
30743;SDS011;17486;46.738;7.622;2023-08-06T13:51:56;0.20;;;0.20;;
30743;SDS011;17486;46.738;7.622;2023-08-06T13:54:22;0.32;;;0.30;;
30743;SDS011;17486;46.738;7.622;2023-08-06T13:56:48;0.50;;;0.30;;
30743;SDS011;17486;46.738;7.622;2023-08-06T13:59:14;0.60;;;0.55;;
30743;SDS011;17486;46.738;7.622;2023-08-06T14:01:40;0.57;;;0.20;;
30743;SDS011;17486;46.738;7.622;2023-08-06T14:04:05;0.63;;;0.30;;
30743;SDS011;17486;46.738;7.622;2023-08-06T14:06:31;0.30;;;0.20;;
30743;SDS011;17486;46.738;7.622;2023-08-06T14:08:56;0.30;;;0.30;;
30743;SDS011;17486;46.738;7.622;2023-08-06T14:11:21;0.38;;;0.20;;
30743;SDS011;17486;46.738;7.622;2023-08-06T14:13:47;0.20;;;0.20;;
30743;SDS011;17486;46.738;7.622;2023-08-06T14:16:12;0.47;;;0.28;;
30743;SDS011;17486;46.738;7.622;2023-08-06T14:18:38;1.20;;;0.20;;
30743;SDS011;17486;46.738;7.622;2023-08-06T14:21:03;0.68;;;0.40;;
30743;SDS011;17486;46.738;7.622;2023-08-06T14:23:29;0.75;;;0.28;;
30743;SDS011;17486;46.738;7.622;2023-08-06T14:25:54;1.33;;;0.40;;
30743;SDS011;17486;46.738;7.622;2023-08-06T14:28:20;0.30;;;0.10;;
30743;SDS011;17486;46.738;7.622;2023-08-06T14:30:46;0.10;;;0.10;;
30743;SDS011;17486;46.738;7.622;2023-08-06T14:33:11;0.30;;;0.30;;
30743;SDS011;17486;46.738;7.622;2023-08-06T14:35:36;0.10;;;0.10;;
30743;SDS011;17486;46.738;7.622;2023-08-06T14:38:02;1.35;;;0.32;;
30743;SDS011;17486;46.738;7.622;2023-08-06T14:40:27;0.10;;;0.10;;
30743;SDS011;17486;46.738;7.622;2023-08-06T14:42:58;2.13;;;0.20;;
30743;SDS011;17486;46.738;7.622;2023-08-06T14:45:24;0.20;;;0.20;;
30743;SDS011;17486;46.738;7.622;2023-08-06T14:47:49;0.98;;;0.20;;
30743;SDS011;17486;46.738;7.622;2023-08-06T14:50:15;0.45;;;0.40;;
30743;SDS011;17486;46.738;7.622;2023-08-06T14:52:40;0.55;;;0.30;;
30743;SDS011;17486;46.738;7.622;2023-08-06T14:55:06;0.38;;;0.30;;